Time;durP1;ratioP1;P1;durP2;ratioP2;P2;SDS_P1;SDS_P2;PMS_P1;PMS_P2;Temp;Humidity;BMP_temperature;BMP_pressure;BME280_temperature;BME280_humidity;BME280_pressure;Samples;Min_cycle;Max_cycle;Signal;HPM_P1;HPM_P2
2022/08/30 00:01:27;;;;;;;25.30;13.77;;;;;;;;;;4918267;28;20398;-79
2022/08/30 00:03:53;;;;;;;23.27;13.45;;;;;;;;;;4921805;29;20399;-79
2022/08/30 00:06:19;;;;;;;22.52;13.55;;;;;;;;;;4949100;28;20039;-79
2022/08/30 00:08:45;;;;;;;23.92;13.40;;;;;;;;;;4953970;29;20086;-79
2022/08/30 00:11:11;;;;;;;24.65;13.93;;;;;;;;;;4927050;29;20039;-80
2022/08/30 00:13:37;;;;;;;21.90;13.02;;;;;;;;;;4954751;29;20019;-80
2022/08/30 00:16:03;;;;;;;24.30;12.93;;;;;;;;;;4937058;29;20665;-79
2022/08/30 00:18:29;;;;;;;20.42;13.70;;;;;;;;;;4957391;28;20493;-80
2022/08/30 00:20:54;;;;;;;21.23;13.40;;;;;;;;;;4958775;29;20066;-80
2022/08/30 00:23:20;;;;;;;20.30;12.63;;;;;;;;;;4957352;29;20027;-81
2022/08/30 00:25:46;;;;;;;20.00;13.43;;;;;;;;;;4936156;29;20075;-80
2022/08/30 00:28:11;;;;;;;22.52;13.23;;;;;;;;;;4946634;29;20074;-80
2022/08/30 00:30:37;;;;;;;22.17;13.30;;;;;;;;;;4957533;29;20074;-80
2022/08/30 00:33:03;;;;;;;19.77;13.65;;;;;;;;;;4940293;29;20031;-79
2022/08/30 00:35:28;;;;;;;20.70;14.05;;;;;;;;;;4950780;29;20098;-78
2022/08/30 00:37:54;;;;;;;22.58;13.57;;;;;;;;;;4941207;29;20023;-80
2022/08/30 00:40:19;;;;;;;22.20;14.57;;;;;;;;;;4958518;29;20042;-79
2022/08/30 00:42:45;;;;;;;25.98;13.30;;;;;;;;;;4937992;29;20031;-81
2022/08/30 00:45:18;;;;;;;24.90;13.98;;;;;;;;;;4958232;29;20566;-80
2022/08/30 00:47:44;;;;;;;20.67;14.18;;;;;;;;;;4953176;29;20076;-82
2022/08/30 00:50:11;;;;;;;23.30;14.23;;;;;;;;;;4940237;28;20459;-81
2022/08/30 00:52:38;;;;;;;24.15;14.50;;;;;;;;;;4956586;29;20487;-79
2022/08/30 00:55:03;;;;;;;20.60;14.07;;;;;;;;;;4940165;29;20031;-79
2022/08/30 00:57:29;;;;;;;25.38;15.10;;;;;;;;;;4957015;29;20078;-80
2022/08/30 00:59:54;;;;;;;23.70;14.13;;;;;;;;;;4956776;29;20035;-79
2022/08/30 01:02:20;;;;;;;20.35;14.15;;;;;;;;;;4930405;29;20048;-79
2022/08/30 01:04:46;;;;;;;23.25;13.98;;;;;;;;;;4950449;28;20042;-79
2022/08/30 01:07:11;;;;;;;21.02;14.13;;;;;;;;;;4936439;29;20502;-81
2022/08/30 01:09:37;;;;;;;22.33;14.10;;;;;;;;;;4952267;28;20426;-79
2022/08/30 01:12:04;;;;;;;21.15;13.85;;;;;;;;;;4954958;29;20039;-79
2022/08/30 01:14:30;;;;;;;24.90;14.50;;;;;;;;;;4908762;29;20023;-79
2022/08/30 01:16:57;;;;;;;18.58;14.75;;;;;;;;;;4955861;28;20023;-81
2022/08/30 01:19:38;;;;;;;25.15;14.98;;;;;;;;;;4922411;29;20039;-79
2022/08/30 01:22:24;;;;;;;21.83;14.30;;;;;;;;;;4940102;29;20126;-80
2022/08/30 01:24:50;;;;;;;22.33;13.90;;;;;;;;;;4939973;29;20035;-80
2022/08/30 01:27:17;;;;;;;21.95;14.23;;;;;;;;;;4923925;29;20164;-79
2022/08/30 01:29:43;;;;;;;24.35;15.27;;;;;;;;;;4955845;28;20398;-81
2022/08/30 01:32:19;;;;;;;24.10;14.73;;;;;;;;;;4956613;28;20399;-80
2022/08/30 01:34:48;;;;;;;25.23;14.95;;;;;;;;;;4956728;29;20493;-78
2022/08/30 01:37:24;;;;;;;22.15;14.70;;;;;;;;;;4948994;29;20035;-79
2022/08/30 01:39:49;;;;;;;22.20;14.57;;;;;;;;;;4956527;29;20090;-79
2022/08/30 01:42:16;;;;;;;24.63;14.25;;;;;;;;;;4956672;28;20027;-80
2022/08/30 01:44:42;;;;;;;20.55;14.05;;;;;;;;;;4939566;29;20118;-79
2022/08/30 01:47:08;;;;;;;19.23;14.80;;;;;;;;;;4956402;28;20503;-78
2022/08/30 01:49:33;;;;;;;23.73;15.43;;;;;;;;;;4955640;29;20035;-81
2022/08/30 01:51:59;;;;;;;25.45;15.52;;;;;;;;;;4936229;29;20114;-79
2022/08/30 01:54:24;;;;;;;31.92;15.63;;;;;;;;;;4956346;29;20027;-78
2022/08/30 01:56:50;;;;;;;21.00;15.48;;;;;;;;;;4956222;29;20019;-79
2022/08/30 01:59:15;;;;;;;21.75;16.50;;;;;;;;;;4938422;29;20697;-79
2022/08/30 02:01:41;;;;;;;19.85;14.88;;;;;;;;;;4954008;29;20386;-78
2022/08/30 02:04:07;;;;;;;23.05;15.45;;;;;;;;;;4950222;29;20059;-79
2022/08/30 02:06:33;;;;;;;19.17;14.55;;;;;;;;;;4955572;28;20114;-79
2022/08/30 02:09:00;;;;;;;20.48;14.55;;;;;;;;;;4955832;29;20035;-80
2022/08/30 02:11:25;;;;;;;20.75;14.48;;;;;;;;;;4948066;29;20034;-80
2022/08/30 02:13:51;;;;;;;21.88;14.45;;;;;;;;;;4948369;29;20028;-79
2022/08/30 02:16:17;;;;;;;26.30;15.82;;;;;;;;;;4961710;28;20390;-79
2022/08/30 02:18:43;;;;;;;23.67;15.30;;;;;;;;;;4932656;29;20051;-79
2022/08/30 02:21:09;;;;;;;22.52;15.63;;;;;;;;;;4955343;28;20031;-80
2022/08/30 02:23:34;;;;;;;24.52;15.60;;;;;;;;;;4954705;29;20125;-81
2022/08/30 02:26:00;;;;;;;19.33;14.57;;;;;;;;;;4953801;29;20030;-80
2022/08/30 02:28:25;;;;;;;22.08;14.48;;;;;;;;;;4952827;29;20039;-79
2022/08/30 02:30:51;;;;;;;20.15;14.65;;;;;;;;;;4950215;29;20055;-79
2022/08/30 02:33:16;;;;;;;16.20;13.60;;;;;;;;;;4951823;29;20380;-79
2022/08/30 02:35:42;;;;;;;22.95;14.68;;;;;;;;;;4953850;29;20031;-78
2022/08/30 02:38:07;;;;;;;19.15;14.15;;;;;;;;;;4921511;29;20090;-78
2022/08/30 02:40:33;;;;;;;19.02;13.30;;;;;;;;;;4937382;29;20045;-80
2022/08/30 02:42:58;;;;;;;21.10;14.70;;;;;;;;;;4954991;29;20848;-79
2022/08/30 02:45:24;;;;;;;19.98;13.98;;;;;;;;;;4955169;28;20070;-79
2022/08/30 02:47:50;;;;;;;19.67;14.55;;;;;;;;;;4955032;28;20039;-79
2022/08/30 02:50:16;;;;;;;18.58;14.57;;;;;;;;;;4934990;29;20067;-79
2022/08/30 02:52:41;;;;;;;21.33;14.05;;;;;;;;;;4938118;29;20058;-78
2022/08/30 02:55:07;;;;;;;22.48;13.73;;;;;;;;;;4953907;29;20023;-79
2022/08/30 02:57:33;;;;;;;20.90;14.10;;;;;;;;;;4955100;29;20039;-79
2022/08/30 02:59:58;;;;;;;22.92;14.45;;;;;;;;;;4938029;29;20047;-79
2022/08/30 03:02:24;;;;;;;19.02;13.73;;;;;;;;;;4935204;29;20553;-79
2022/08/30 03:04:50;;;;;;;22.20;14.20;;;;;;;;;;4952661;28;20031;-79
2022/08/30 03:07:15;;;;;;;18.55;14.05;;;;;;;;;;4954795;29;20070;-81
2022/08/30 03:09:41;;;;;;;22.55;14.15;;;;;;;;;;4953637;29;20030;-80
2022/08/30 03:12:07;;;;;;;22.17;14.05;;;;;;;;;;4934614;29;20538;-80
2022/08/30 03:14:34;;;;;;;20.42;14.35;;;;;;;;;;4932557;29;20019;-80
2022/08/30 03:16:59;;;;;;;17.77;13.70;;;;;;;;;;4943430;29;20035;-79
2022/08/30 03:19:25;;;;;;;21.95;14.02;;;;;;;;;;4954737;29;20038;-80
2022/08/30 03:21:50;;;;;;;19.83;14.10;;;;;;;;;;4953571;29;20031;-80
2022/08/30 03:24:16;;;;;;;15.38;13.55;;;;;;;;;;4954939;29;20031;-79
2022/08/30 03:26:42;;;;;;;20.52;14.15;;;;;;;;;;4954385;29;20089;-80
2022/08/30 03:29:07;;;;;;;15.48;13.77;;;;;;;;;;4954793;28;20042;-81
2022/08/30 03:31:33;;;;;;;20.50;14.38;;;;;;;;;;4934861;29;20046;-79
2022/08/30 03:33:58;;;;;;;18.00;13.98;;;;;;;;;;4949250;29;20027;-80
2022/08/30 03:36:24;;;;;;;21.90;15.57;;;;;;;;;;4934582;29;20036;-80
2022/08/30 03:38:49;;;;;;;20.85;14.35;;;;;;;;;;4949141;29;20035;-80
2022/08/30 03:41:16;;;;;;;19.15;13.23;;;;;;;;;;4951214;29;20042;-81
2022/08/30 03:43:42;;;;;;;16.02;13.20;;;;;;;;;;4954316;28;20082;-79
2022/08/30 03:46:08;;;;;;;18.80;13.43;;;;;;;;;;4934793;29;20050;-85
2022/08/30 03:48:33;;;;;;;16.67;13.68;;;;;;;;;;4916969;28;20134;-81
2022/08/30 03:50:59;;;;;;;18.98;13.73;;;;;;;;;;4941115;29;20063;-80
2022/08/30 03:53:25;;;;;;;17.30;13.25;;;;;;;;;;4936930;29;20115;-78
2022/08/30 03:55:50;;;;;;;17.65;12.95;;;;;;;;;;4959651;28;20510;-81
2022/08/30 03:58:16;;;;;;;18.25;13.13;;;;;;;;;;4945742;28;20101;-80
2022/08/30 04:00:41;;;;;;;19.25;13.07;;;;;;;;;;4942241;29;20375;-79
2022/08/30 04:03:07;;;;;;;20.55;13.77;;;;;;;;;;4961644;28;20043;-79
2022/08/30 04:05:33;;;;;;;16.88;13.48;;;;;;;;;;4943504;29;20039;-80
2022/08/30 04:07:59;;;;;;;17.20;13.50;;;;;;;;;;4943671;29;20454;-80
2022/08/30 04:10:25;;;;;;;16.85;13.48;;;;;;;;;;4960269;29;20043;-81
2022/08/30 04:12:50;;;;;;;17.00;14.45;;;;;;;;;;4961181;28;20046;-81
2022/08/30 04:15:16;;;;;;;19.20;13.82;;;;;;;;;;4941889;29;20415;-80
2022/08/30 04:17:42;;;;;;;16.17;13.52;;;;;;;;;;4904962;29;20028;-79
2022/08/30 04:20:08;;;;;;;18.73;14.10;;;;;;;;;;4945038;29;20039;-80
2022/08/30 04:22:33;;;;;;;16.63;13.35;;;;;;;;;;4928604;29;20059;-80
2022/08/30 04:24:59;;;;;;;18.42;14.98;;;;;;;;;;4942899;29;20038;-79
2022/08/30 04:27:24;;;;;;;20.23;14.23;;;;;;;;;;4961152;28;20032;-79
2022/08/30 04:29:50;;;;;;;22.95;14.00;;;;;;;;;;4959282;29;20562;-80
2022/08/30 04:32:15;;;;;;;20.23;14.40;;;;;;;;;;4959144;29;20086;-79
2022/08/30 04:34:41;;;;;;;20.77;13.82;;;;;;;;;;4961772;28;20031;-80
2022/08/30 04:37:06;;;;;;;16.90;13.85;;;;;;;;;;4961236;29;20020;-80
2022/08/30 04:39:32;;;;;;;17.92;13.63;;;;;;;;;;4944003;29;20046;-79
2022/08/30 04:41:58;;;;;;;18.58;12.70;;;;;;;;;;4959620;28;20558;-79
2022/08/30 04:44:26;;;;;;;18.00;13.23;;;;;;;;;;4960433;28;20077;-80
2022/08/30 04:46:52;;;;;;;17.77;13.50;;;;;;;;;;4938584;29;20035;-82
2022/08/30 04:49:17;;;;;;;17.50;13.35;;;;;;;;;;4942869;29;20087;-82
2022/08/30 04:51:43;;;;;;;20.52;13.60;;;;;;;;;;4941203;29;20030;-81
2022/08/30 04:54:08;;;;;;;18.75;13.35;;;;;;;;;;4941855;29;20102;-81
2022/08/30 04:56:34;;;;;;;18.05;12.70;;;;;;;;;;4929808;28;20027;-81
2022/08/30 04:58:59;;;;;;;21.83;13.60;;;;;;;;;;4959783;29;20083;-78
2022/08/30 05:01:26;;;;;;;20.08;12.93;;;;;;;;;;4940296;29;20179;-79
2022/08/30 05:03:52;;;;;;;18.67;12.43;;;;;;;;;;4923141;29;20080;-82
2022/08/30 05:06:17;;;;;;;15.68;12.35;;;;;;;;;;4923984;29;20035;-80
2022/08/30 05:08:43;;;;;;;20.33;13.60;;;;;;;;;;4943553;29;20140;-81
2022/08/30 05:11:09;;;;;;;19.85;13.35;;;;;;;;;;4952583;29;20023;-81
2022/08/30 05:13:34;;;;;;;20.75;13.77;;;;;;;;;;4958719;29;20118;-81
2022/08/30 05:16:00;;;;;;;16.30;12.57;;;;;;;;;;4950750;29;20023;-79
2022/08/30 05:18:26;;;;;;;18.30;12.40;;;;;;;;;;4936994;29;20071;-80
2022/08/30 05:21:07;;;;;;;19.45;11.95;;;;;;;;;;4958745;29;20086;-80
2022/08/30 05:23:33;;;;;;;20.52;12.75;;;;;;;;;;4935941;29;20062;-82
2022/08/30 05:26:02;;;;;;;15.75;12.40;;;;;;;;;;4939113;29;20038;-80
2022/08/30 05:28:28;;;;;;;15.80;11.50;;;;;;;;;;4939825;29;20566;-81
2022/08/30 05:30:53;;;;;;;20.15;12.27;;;;;;;;;;4957519;28;20118;-81
2022/08/30 05:33:19;;;;;;;18.25;11.88;;;;;;;;;;4925868;29;20031;-80
2022/08/30 05:35:46;;;;;;;19.27;12.18;;;;;;;;;;4940239;29;20059;-80
2022/08/30 05:38:11;;;;;;;20.52;12.38;;;;;;;;;;4940939;29;20023;-84
2022/08/30 05:40:41;;;;;;;20.27;12.15;;;;;;;;;;4938409;29;20086;-82
2022/08/30 05:43:08;;;;;;;23.17;12.80;;;;;;;;;;4938457;29;20055;-80
2022/08/30 05:45:34;;;;;;;18.30;11.65;;;;;;;;;;4904785;29;20510;-80
2022/08/30 05:48:00;;;;;;;22.13;12.30;;;;;;;;;;4957625;29;20054;-82
2022/08/30 05:50:26;;;;;;;19.90;11.40;;;;;;;;;;4939394;29;20034;-80
2022/08/30 05:52:51;;;;;;;22.77;12.02;;;;;;;;;;4936668;29;20106;-80
2022/08/30 05:55:17;;;;;;;18.02;12.15;;;;;;;;;;4939491;29;20439;-81
2022/08/30 05:57:45;;;;;;;22.60;12.43;;;;;;;;;;4940964;29;20048;-83
2022/08/30 06:00:12;;;;;;;20.50;12.52;;;;;;;;;;4914771;29;20443;-81
2022/08/30 06:02:41;;;;;;;20.15;12.23;;;;;;;;;;4957448;29;20491;-83
2022/08/30 06:05:06;;;;;;;19.20;12.27;;;;;;;;;;4945288;29;20036;-81
2022/08/30 06:07:32;;;;;;;22.60;12.20;;;;;;;;;;4942560;29;20094;-80
2022/08/30 06:09:57;;;;;;;21.50;12.07;;;;;;;;;;4924310;29;20027;-82
2022/08/30 06:12:23;;;;;;;17.17;11.52;;;;;;;;;;4941564;29;20049;-85
2022/08/30 06:14:49;;;;;;;21.42;11.55;;;;;;;;;;4926392;28;20058;-83
2022/08/30 06:17:14;;;;;;;22.25;11.30;;;;;;;;;;4958496;29;20035;-84
2022/08/30 06:19:40;;;;;;;20.17;10.82;;;;;;;;;;4924638;29;20537;-80
2022/08/30 06:22:05;;;;;;;19.55;10.65;;;;;;;;;;4938154;29;20046;-82
2022/08/30 06:24:31;;;;;;;20.67;11.00;;;;;;;;;;4931032;29;20027;-82
2022/08/30 06:26:57;;;;;;;24.20;11.93;;;;;;;;;;4922119;29;20054;-81
2022/08/30 06:29:22;;;;;;;16.45;10.43;;;;;;;;;;4924048;29;20036;-80
2022/08/30 06:31:48;;;;;;;16.02;10.27;;;;;;;;;;4922337;29;20164;-80
2022/08/30 06:34:14;;;;;;;21.55;10.43;;;;;;;;;;4919365;29;20027;-80
2022/08/30 06:36:39;;;;;;;19.60;10.60;;;;;;;;;;4922138;29;20051;-81
2022/08/30 06:39:05;;;;;;;18.48;10.88;;;;;;;;;;4935716;29;20031;-82
2022/08/30 06:41:31;;;;;;;17.85;11.10;;;;;;;;;;4957904;29;20035;-81
2022/08/30 06:43:57;;;;;;;15.65;10.63;;;;;;;;;;4959618;29;20051;-82
2022/08/30 06:46:23;;;;;;;15.25;10.27;;;;;;;;;;4937132;29;20043;-81
2022/08/30 06:48:49;;;;;;;15.25;8.40;;;;;;;;;;4940905;29;20043;-85
2022/08/30 06:51:18;;;;;;;17.55;10.15;;;;;;;;;;4924943;29;20509;-82
2022/08/30 06:53:43;;;;;;;19.00;9.77;;;;;;;;;;4938181;29;20121;-83
2022/08/30 06:56:09;;;;;;;16.95;9.43;;;;;;;;;;4937246;29;20035;-82
2022/08/30 06:58:36;;;;;;;16.40;9.50;;;;;;;;;;4921769;29;20027;-80
2022/08/30 07:01:02;;;;;;;19.65;9.77;;;;;;;;;;4956771;29;20035;-81
2022/08/30 07:03:27;;;;;;;21.73;9.73;;;;;;;;;;4950806;29;20077;-82
2022/08/30 07:05:53;;;;;;;17.45;9.43;;;;;;;;;;4940540;29;20039;-82
2022/08/30 07:08:19;;;;;;;20.23;9.80;;;;;;;;;;4920586;29;20379;-83
2022/08/30 07:10:44;;;;;;;20.50;10.20;;;;;;;;;;4939055;29;20039;-81
2022/08/30 07:13:10;;;;;;;20.88;9.23;;;;;;;;;;4923903;29;20031;-80
2022/08/30 07:15:38;;;;;;;20.60;10.48;;;;;;;;;;4956253;29;20490;-81
2022/08/30 07:20:49;;;;;;;15.95;9.30;;;;;;;;;;4956004;29;20062;-80
2022/08/30 07:23:14;;;;;;;16.77;9.00;;;;;;;;;;4938266;29;20473;-81
2022/08/30 07:25:40;;;;;;;21.80;9.52;;;;;;;;;;4955321;29;20082;-80
2022/08/30 07:28:05;;;;;;;23.42;9.02;;;;;;;;;;4923747;29;20036;-81
2022/08/30 07:30:31;;;;;;;19.30;9.10;;;;;;;;;;4921050;29;20047;-80
2022/08/30 07:32:57;;;;;;;15.55;9.15;;;;;;;;;;4936650;29;20027;-84
2022/08/30 07:35:23;;;;;;;19.08;8.45;;;;;;;;;;4923319;29;20082;-83
2022/08/30 07:37:49;;;;;;;16.52;8.25;;;;;;;;;;4938385;29;20026;-81
2022/08/30 07:40:14;;;;;;;20.08;8.15;;;;;;;;;;4956006;29;20043;-85
2022/08/30 07:42:41;;;;;;;16.42;8.02;;;;;;;;;;4938459;29;20027;-82
2022/08/30 07:45:07;;;;;;;18.45;7.53;;;;;;;;;;4954928;29;20482;-79
2022/08/30 07:47:33;;;;;;;14.55;8.10;;;;;;;;;;4938104;29;20035;-80
2022/08/30 07:49:59;;;;;;;18.98;8.10;;;;;;;;;;4939593;29;20090;-79
2022/08/30 07:52:26;;;;;;;18.30;7.03;;;;;;;;;;4918594;29;20019;-81
2022/08/30 07:54:52;;;;;;;18.20;7.97;;;;;;;;;;4927865;29;20440;-81
2022/08/30 07:57:18;;;;;;;16.00;7.35;;;;;;;;;;4936663;29;20053;-80
2022/08/30 07:59:43;;;;;;;17.58;7.13;;;;;;;;;;4955755;29;20044;-80
2022/08/30 08:02:09;;;;;;;22.17;7.60;;;;;;;;;;4920197;29;20032;-81
2022/08/30 08:04:34;;;;;;;20.88;7.13;;;;;;;;;;4936076;29;20035;-80
2022/08/30 08:07:00;;;;;;;14.93;6.85;;;;;;;;;;4954378;29;20027;-84
2022/08/30 08:09:26;;;;;;;18.17;6.78;;;;;;;;;;4914275;29;20488;-81
2022/08/30 08:11:52;;;;;;;15.38;6.53;;;;;;;;;;4923234;29;20062;-82
2022/08/30 08:14:17;;;;;;;18.98;7.18;;;;;;;;;;4914808;29;20036;-80
2022/08/30 08:16:45;;;;;;;17.40;6.60;;;;;;;;;;4938943;29;20067;-84
2022/08/30 08:19:11;;;;;;;21.33;6.80;;;;;;;;;;4948285;29;20452;-81
2022/08/30 08:21:37;;;;;;;19.75;6.50;;;;;;;;;;4913498;29;20032;-82
2022/08/30 08:24:02;;;;;;;20.80;6.35;;;;;;;;;;4947345;29;20090;-80
2022/08/30 08:26:28;;;;;;;15.73;5.72;;;;;;;;;;4922319;29;20092;-81
2022/08/30 08:28:54;;;;;;;20.80;6.72;;;;;;;;;;4920407;29;20035;-82
2022/08/30 08:31:21;;;;;;;26.08;7.15;;;;;;;;;;4954531;28;20034;-83
2022/08/30 08:33:46;;;;;;;19.25;6.13;;;;;;;;;;4939827;29;20039;-81
2022/08/30 08:36:12;;;;;;;17.35;5.50;;;;;;;;;;4957554;29;20138;-81
2022/08/30 08:38:37;;;;;;;19.45;5.65;;;;;;;;;;4936032;29;20099;-80
2022/08/30 08:41:16;;;;;;;18.08;5.38;;;;;;;;;;4940570;29;20039;-81
2022/08/30 08:43:42;;;;;;;18.02;6.03;;;;;;;;;;4942532;29;20082;-82
2022/08/30 08:46:12;;;;;;;16.50;5.88;;;;;;;;;;4947380;29;20482;-80
2022/08/30 08:48:38;;;;;;;21.83;5.93;;;;;;;;;;4946624;28;20414;-81
2022/08/30 08:53:49;;;;;;;22.00;5.57;;;;;;;;;;4942630;29;20039;-81
2022/08/30 08:56:15;;;;;;;19.27;5.43;;;;;;;;;;4928793;29;20071;-84
2022/08/30 08:58:46;;;;;;;17.40;6.35;;;;;;;;;;4942605;29;20118;-81
2022/08/30 09:01:12;;;;;;;20.75;5.65;;;;;;;;;;4958599;29;20046;-81
2022/08/30 09:03:38;;;;;;;18.15;5.45;;;;;;;;;;4923807;29;20063;-82
2022/08/30 09:06:08;;;;;;;17.13;5.63;;;;;;;;;;4909299;29;20135;-81
2022/08/30 09:08:35;;;;;;;22.77;5.55;;;;;;;;;;4947387;29;20035;-85
2022/08/30 09:11:02;;;;;;;15.98;4.93;;;;;;;;;;4926881;29;20027;-80
2022/08/30 09:13:27;;;;;;;18.02;5.70;;;;;;;;;;4938286;29;20031;-81
2022/08/30 09:15:54;;;;;;;16.00;4.90;;;;;;;;;;4939286;29;20031;-82
2022/08/30 09:18:20;;;;;;;21.13;6.30;;;;;;;;;;4925305;29;20039;-82
2022/08/30 09:20:47;;;;;;;19.27;5.32;;;;;;;;;;4921343;29;20366;-81
2022/08/30 09:23:13;;;;;;;17.00;5.07;;;;;;;;;;4929853;29;20050;-82
2022/08/30 09:25:48;;;;;;;18.20;5.68;;;;;;;;;;4926239;29;20031;-82
2022/08/30 09:28:17;;;;;;;17.83;5.60;;;;;;;;;;4926502;29;20413;-80
2022/08/30 09:30:56;;;;;;;15.68;5.32;;;;;;;;;;4916114;29;20599;-80
2022/08/30 09:33:22;;;;;;;22.63;5.05;;;;;;;;;;4942032;29;20035;-83
2022/08/30 09:35:48;;;;;;;16.70;5.78;;;;;;;;;;4944178;28;20054;-82
2022/08/30 09:38:25;;;;;;;18.63;4.88;;;;;;;;;;4909734;29;20514;-84
2022/08/30 09:40:51;;;;;;;18.30;4.90;;;;;;;;;;4941515;29;20417;-82
2022/08/30 09:43:17;;;;;;;19.30;5.72;;;;;;;;;;4958910;29;20423;-81
2022/08/30 09:45:46;;;;;;;23.48;5.88;;;;;;;;;;4940620;29;20042;-82
2022/08/30 09:48:21;;;;;;;16.50;5.47;;;;;;;;;;4938654;29;20047;-81
2022/08/30 09:50:48;;;;;;;18.25;4.50;;;;;;;;;;4939206;29;20494;-82
2022/08/30 09:53:17;;;;;;;16.48;5.55;;;;;;;;;;4961348;29;20086;-81
2022/08/30 09:56:02;;;;;;;17.05;6.50;;;;;;;;;;4942385;29;20977;-84
2022/08/30 09:58:44;;;;;;;21.20;4.95;;;;;;;;;;4933696;29;20035;-82
2022/08/30 10:01:36;;;;;;;17.65;4.65;;;;;;;;;;4942097;29;20035;-82
2022/08/30 10:04:08;;;;;;;17.05;4.85;;;;;;;;;;4953256;28;20043;-80
2022/08/30 10:06:53;;;;;;;15.75;5.30;;;;;;;;;;4924200;29;20051;-80
2022/08/30 10:09:34;;;;;;;14.07;5.18;;;;;;;;;;4925880;29;20558;-81
2022/08/30 10:12:02;;;;;;;16.63;5.30;;;;;;;;;;4939807;29;20038;-81
2022/08/30 10:14:47;;;;;;;18.10;4.60;;;;;;;;;;4937826;29;20083;-81
2022/08/30 10:17:33;;;;;;;22.98;5.18;;;;;;;;;;4952408;29;20569;-84
2022/08/30 10:20:07;;;;;;;16.33;5.18;;;;;;;;;;4941149;29;20046;-84
2022/08/30 10:22:34;;;;;;;21.13;5.60;;;;;;;;;;4931823;29;20426;-81
2022/08/30 10:25:08;;;;;;;15.88;4.78;;;;;;;;;;4940291;29;20103;-80
2022/08/30 10:27:35;;;;;;;20.75;4.63;;;;;;;;;;4922582;29;20049;-82
2022/08/30 10:30:02;;;;;;;20.77;4.85;;;;;;;;;;4925233;29;20526;-81
2022/08/30 10:32:29;;;;;;;14.95;4.50;;;;;;;;;;4940219;29;20051;-81
2022/08/30 10:35:01;;;;;;;14.25;5.25;;;;;;;;;;4960131;29;20110;-81
2022/08/30 10:37:27;;;;;;;14.43;4.60;;;;;;;;;;4942036;29;20035;-84
2022/08/30 10:39:59;;;;;;;19.25;4.97;;;;;;;;;;4939130;29;20024;-85
2022/08/30 10:42:26;;;;;;;20.65;4.85;;;;;;;;;;4921520;29;20450;-80
2022/08/30 10:44:53;;;;;;;20.17;4.80;;;;;;;;;;4923928;29;20051;-82
2022/08/30 10:47:33;;;;;;;14.13;4.45;;;;;;;;;;4940204;29;20027;-81
2022/08/30 10:50:01;;;;;;;18.08;4.65;;;;;;;;;;4941919;29;20035;-81
2022/08/30 10:52:36;;;;;;;19.30;4.95;;;;;;;;;;4925368;29;20540;-83
2022/08/30 10:55:02;;;;;;;22.10;5.25;;;;;;;;;;4937404;29;20036;-84
2022/08/30 10:57:27;;;;;;;16.17;4.93;;;;;;;;;;4957310;29;20034;-80
2022/08/30 11:00:00;;;;;;;20.05;4.85;;;;;;;;;;4939928;29;20051;-82
2022/08/30 11:02:32;;;;;;;19.65;4.95;;;;;;;;;;4936036;29;20043;-80
2022/08/30 11:05:16;;;;;;;17.27;5.10;;;;;;;;;;4936147;28;20039;-80
2022/08/30 11:07:55;;;;;;;21.45;4.65;;;;;;;;;;4942137;29;20069;-82
2022/08/30 11:10:24;;;;;;;17.75;4.85;;;;;;;;;;4941311;29;20062;-81
2022/08/30 11:12:53;;;;;;;17.10;4.72;;;;;;;;;;4924592;29;20394;-82
2022/08/30 11:15:20;;;;;;;13.40;4.20;;;;;;;;;;4947991;29;20487;-81
2022/08/30 11:17:52;;;;;;;14.82;4.55;;;;;;;;;;4939473;29;20035;-81
2022/08/30 11:20:42;;;;;;;14.75;4.28;;;;;;;;;;4945681;29;20490;-82
2022/08/30 11:23:17;;;;;;;16.02;4.00;;;;;;;;;;4942043;29;20035;-82
2022/08/30 11:25:53;;;;;;;14.57;4.67;;;;;;;;;;4956112;29;20051;-83
2022/08/30 11:28:34;;;;;;;13.48;4.32;;;;;;;;;;4927960;29;20046;-83
2022/08/30 11:31:06;;;;;;;15.50;4.00;;;;;;;;;;4958065;29;20431;-82
2022/08/30 11:33:47;;;;;;;13.60;4.30;;;;;;;;;;4943662;29;20070;-81
2022/08/30 11:36:28;;;;;;;18.25;4.50;;;;;;;;;;4942281;29;20118;-82
2022/08/30 11:38:54;;;;;;;17.15;3.97;;;;;;;;;;4941724;29;20164;-85
2022/08/30 11:41:29;;;;;;;15.85;4.50;;;;;;;;;;4961166;29;20031;-81
2022/08/30 11:43:55;;;;;;;15.98;4.18;;;;;;;;;;4940515;28;20063;-83
2022/08/30 11:46:27;;;;;;;16.33;4.20;;;;;;;;;;4956278;29;20043;-79
2022/08/30 11:48:53;;;;;;;15.30;4.30;;;;;;;;;;4958884;29;20764;-81
2022/08/30 11:51:37;;;;;;;15.43;4.65;;;;;;;;;;4938565;29;20027;-88
2022/08/30 11:54:22;;;;;;;21.20;4.15;;;;;;;;;;4925611;29;20510;-82
2022/08/30 11:56:47;;;;;;;15.70;4.47;;;;;;;;;;4951780;29;20130;-83
2022/08/30 11:59:35;;;;;;;14.82;4.43;;;;;;;;;;4943933;29;20055;-81
2022/08/30 12:02:00;;;;;;;14.85;4.20;;;;;;;;;;4956724;29;20118;-82
2022/08/30 12:04:27;;;;;;;15.63;4.20;;;;;;;;;;4926477;29;20458;-85
2022/08/30 12:07:04;;;;;;;13.75;3.70;;;;;;;;;;4927112;29;20047;-83
2022/08/30 12:09:31;;;;;;;15.52;4.35;;;;;;;;;;4939158;29;20047;-83
2022/08/30 12:12:20;;;;;;;12.15;3.70;;;;;;;;;;4929638;29;20487;-82
2022/08/30 12:14:47;;;;;;;16.35;4.45;;;;;;;;;;4923182;29;20045;-82
2022/08/30 12:20:21;;;;;;;17.17;3.83;;;;;;;;;;4958563;28;20387;-81
2022/08/30 12:22:48;;;;;;;11.82;3.78;;;;;;;;;;4948814;29;20114;-84
2022/08/30 12:25:16;;;;;;;13.38;4.18;;;;;;;;;;4944658;29;20500;-83
2022/08/30 12:27:42;;;;;;;14.05;4.20;;;;;;;;;;4946255;28;20035;-83
2022/08/30 12:30:07;;;;;;;14.70;4.22;;;;;;;;;;4926113;29;20022;-83
2022/08/30 12:32:34;;;;;;;19.33;4.07;;;;;;;;;;4957008;29;20082;-85
2022/08/30 12:35:02;;;;;;;14.98;4.18;;;;;;;;;;4927837;29;20023;-83
2022/08/30 12:37:32;;;;;;;14.15;3.47;;;;;;;;;;4943512;29;20513;-82
2022/08/30 12:40:00;;;;;;;12.48;3.95;;;;;;;;;;4943594;29;20067;-82
2022/08/30 12:42:30;;;;;;;13.07;4.13;;;;;;;;;;4945085;29;20062;-83
2022/08/30 12:44:59;;;;;;;12.63;3.55;;;;;;;;;;4944450;29;20047;-83
2022/08/30 12:47:28;;;;;;;18.00;4.45;;;;;;;;;;4917557;29;20028;-82
2022/08/30 12:49:55;;;;;;;18.88;4.07;;;;;;;;;;4943297;29;20038;-84
2022/08/30 12:52:22;;;;;;;15.52;4.53;;;;;;;;;;4944387;29;20031;-82
2022/08/30 12:54:48;;;;;;;16.42;4.15;;;;;;;;;;4928411;29;20122;-83
2022/08/30 12:57:14;;;;;;;18.48;4.43;;;;;;;;;;4924448;29;20036;-82
2022/08/30 12:59:39;;;;;;;16.10;4.05;;;;;;;;;;4925754;29;20020;-86
2022/08/30 13:02:12;;;;;;;11.73;4.10;;;;;;;;;;4938950;29;20502;-84
2022/08/30 13:04:38;;;;;;;15.75;4.32;;;;;;;;;;4928076;29;20031;-88
2022/08/30 13:07:03;;;;;;;13.85;4.35;;;;;;;;;;4929759;29;20407;-83
2022/08/30 13:09:33;;;;;;;17.25;4.38;;;;;;;;;;4927932;29;20046;-80
2022/08/30 13:12:03;;;;;;;18.52;4.15;;;;;;;;;;4942736;29;20031;-83
2022/08/30 13:14:28;;;;;;;14.00;4.15;;;;;;;;;;4939532;28;20062;-85
2022/08/30 13:17:13;;;;;;;17.60;4.65;;;;;;;;;;4928468;29;20039;-84
2022/08/30 13:20:06;;;;;;;17.70;4.30;;;;;;;;;;4960675;28;20529;-83
2022/08/30 13:22:34;;;;;;;23.40;4.70;;;;;;;;;;4959584;28;20094;-82
2022/08/30 13:25:00;;;;;;;21.60;5.05;;;;;;;;;;4931884;29;20028;-82
2022/08/30 13:27:26;;;;;;;18.70;5.43;;;;;;;;;;4959503;29;20043;-87
2022/08/30 13:29:52;;;;;;;19.17;4.95;;;;;;;;;;4932143;29;20027;-82
2022/08/30 13:32:19;;;;;;;18.00;5.25;;;;;;;;;;4927794;29;20043;-84
2022/08/30 13:34:44;;;;;;;21.95;5.18;;;;;;;;;;4926636;29;20035;-82
2022/08/30 13:37:14;;;;;;;23.35;5.13;;;;;;;;;;4922914;29;20035;-82
2022/08/30 13:39:39;;;;;;;22.55;5.38;;;;;;;;;;4958088;29;20054;-82
2022/08/30 13:42:05;;;;;;;19.65;4.45;;;;;;;;;;4941831;29;20035;-83
2022/08/30 13:44:31;;;;;;;23.50;5.82;;;;;;;;;;4924694;29;20058;-81
2022/08/30 13:46:57;;;;;;;23.50;5.40;;;;;;;;;;4960688;28;20470;-83
2022/08/30 13:49:29;;;;;;;15.05;5.18;;;;;;;;;;4944909;29;20074;-82
2022/08/30 13:51:55;;;;;;;19.80;5.60;;;;;;;;;;4957725;29;20042;-82
2022/08/30 13:54:21;;;;;;;17.77;4.95;;;;;;;;;;4918193;29;20436;-82
2022/08/30 13:56:51;;;;;;;14.18;4.95;;;;;;;;;;4946283;29;20479;-82
2022/08/30 13:59:17;;;;;;;16.33;5.25;;;;;;;;;;4923147;29;20039;-81
2022/08/30 14:01:42;;;;;;;23.08;5.45;;;;;;;;;;4936279;29;20040;-82
2022/08/30 14:04:08;;;;;;;15.52;4.75;;;;;;;;;;4938486;29;20024;-82
2022/08/30 14:06:33;;;;;;;18.58;5.68;;;;;;;;;;4936275;29;20031;-84
2022/08/30 14:08:59;;;;;;;14.60;4.97;;;;;;;;;;4938829;29;20028;-83
2022/08/30 14:11:24;;;;;;;16.05;5.07;;;;;;;;;;4937316;29;20043;-83
2022/08/30 14:13:50;;;;;;;14.25;4.43;;;;;;;;;;4927930;29;20027;-83
2022/08/30 14:16:16;;;;;;;12.10;4.70;;;;;;;;;;4930818;29;20070;-82
2022/08/30 14:18:41;;;;;;;16.13;4.85;;;;;;;;;;4915392;29;20407;-83
2022/08/30 14:21:07;;;;;;;17.10;5.20;;;;;;;;;;4953056;29;20471;-82
2022/08/30 14:23:32;;;;;;;15.45;4.63;;;;;;;;;;4952269;29;20666;-82
2022/08/30 14:26:01;;;;;;;11.52;4.38;;;;;;;;;;4928446;29;20023;-87
2022/08/30 14:28:29;;;;;;;16.70;4.40;;;;;;;;;;4926510;29;20039;-81
2022/08/30 14:30:55;;;;;;;13.98;5.00;;;;;;;;;;4938355;29;20410;-82
2022/08/30 14:33:20;;;;;;;15.40;4.60;;;;;;;;;;4928526;29;20491;-81
2022/08/30 14:35:46;;;;;;;18.52;4.85;;;;;;;;;;4925145;28;20038;-81